Impacts TAF Board
For situational awareness. Not to be used for flight planning purposes.
IDs:

KPHX - Phoenix/Sky Harbor, AZ, US

Issued at 1720 UTC 22 Sep 2018
Updated at 1833 UTC 22 Sep 2018
Potential Impact None Slight Moderate High
Time<<23/07Z 23/08Z 23/09Z 23/10Z 23/11Z 23/12Z 23/13Z 23/14Z 23/15Z 23/16Z 23/17Z 23/18Z 23/19Z>>
Type PRVL PRVL PRVL PRVL PRVL PRVL PRVL PRVL PRVL PRVL PRVL PRVL PRVL
VIS >6 >6 >6 >6 >6 >6 >6 >6 >6 >6 >6 >6 >6
CIG -- -- -- -- -- -- -- -- -- -- -- -- --
Cover FEW FEW FEW FEW FEW FEW FEW FEW FEW FEW FEW FEW FEW
FltCat VFR VFR VFR VFR VFR VFR VFR VFR VFR VFR VFR VFR VFR
WX -- -- -- -- -- -- -- -- -- -- -- -- --
WDir 100 100 100 100 100 100 100 100 100 100 100 100 100
WSpd 6 6 6 6 6 6 6 11 11 11 11 11 11
WGst -- -- -- -- -- -- -- 18 18 18 18 18 18
Raw TAF
KPHX 221720Z 2218/2324 11012G20KT P6SM SKC
  FM222000 10006KT P6SM FEW100
  FM231400 10011G18KT P6SM FEW250
  FM232000 12006KT P6SM SKC


METAR Board
Radar Display
Forecast Discussion
For situational awareness. Not to be used for flight planning purposes.